sensor_id;sensor_type;location;lat;lon;timestamp;temperature;humidity
3308;DHT22;1666;48.898;9.182;2023-08-07T00:02:28;12.30;1.00
3308;DHT22;1666;48.898;9.182;2023-08-07T00:04:58;12.30;1.00
3308;DHT22;1666;48.898;9.182;2023-08-07T00:07:29;12.30;1.00
3308;DHT22;1666;48.898;9.182;2023-08-07T00:09:59;12.30;1.00
3308;DHT22;1666;48.898;9.182;2023-08-07T00:12:30;12.40;1.00
3308;DHT22;1666;48.898;9.182;2023-08-07T00:15:01;12.40;1.00
3308;DHT22;1666;48.898;9.182;2023-08-07T00:17:34;12.30;1.00
3308;DHT22;1666;48.898;9.182;2023-08-07T00:20:05;12.30;1.00
3308;DHT22;1666;48.898;9.182;2023-08-07T00:22:35;12.30;1.00
3308;DHT22;1666;48.898;9.182;2023-08-07T00:25:05;12.30;1.00
3308;DHT22;1666;48.898;9.182;2023-08-07T00:27:35;12.30;1.00
3308;DHT22;1666;48.898;9.182;2023-08-07T00:30:06;12.30;1.00
3308;DHT22;1666;48.898;9.182;2023-08-07T00:32:39;12.30;1.00
3308;DHT22;1666;48.898;9.182;2023-08-07T00:35:09;12.30;1.00
3308;DHT22;1666;48.898;9.182;2023-08-07T00:37:39;12.30;1.00
3308;DHT22;1666;48.898;9.182;2023-08-07T00:40:10;12.30;1.00
3308;DHT22;1666;48.898;9.182;2023-08-07T00:42:40;12.40;1.00
3308;DHT22;1666;48.898;9.182;2023-08-07T00:45:10;12.40;1.00
3308;DHT22;1666;48.898;9.182;2023-08-07T00:47:42;12.40;1.00
3308;DHT22;1666;48.898;9.182;2023-08-07T00:50:13;12.50;1.00
3308;DHT22;1666;48.898;9.182;2023-08-07T00:52:43;12.50;1.00
3308;DHT22;1666;48.898;9.182;2023-08-07T00:55:13;12.50;1.00
3308;DHT22;1666;48.898;9.182;2023-08-07T00:57:43;12.50;1.00
3308;DHT22;1666;48.898;9.182;2023-08-07T01:00:14;12.50;1.00
3308;DHT22;1666;48.898;9.182;2023-08-07T01:02:47;12.50;1.00
3308;DHT22;1666;48.898;9.182;2023-08-07T01:05:18;12.50;1.00
3308;DHT22;1666;48.898;9.182;2023-08-07T01:07:48;12.50;1.00
3308;DHT22;1666;48.898;9.182;2023-08-07T01:10:27;12.50;1.00
3308;DHT22;1666;48.898;9.182;2023-08-07T01:13:04;12.50;1.00
3308;DHT22;1666;48.898;9.182;2023-08-07T01:15:38;12.40;1.00
3308;DHT22;1666;48.898;9.182;2023-08-07T01:18:11;12.40;1.00
3308;DHT22;1666;48.898;9.182;2023-08-07T01:20:41;12.40;1.00
3308;DHT22;1666;48.898;9.182;2023-08-07T01:23:14;12.40;1.00
3308;DHT22;1666;48.898;9.182;2023-08-07T01:25:44;12.40;1.00
3308;DHT22;1666;48.898;9.182;2023-08-07T01:28:17;12.40;1.00
3308;DHT22;1666;48.898;9.182;2023-08-07T01:30:50;12.40;1.00
3308;DHT22;1666;48.898;9.182;2023-08-07T01:33:28;12.40;1.00
3308;DHT22;1666;48.898;9.182;2023-08-07T01:36:02;12.40;1.00
3308;DHT22;1666;48.898;9.182;2023-08-07T01:38:37;12.40;1.00
3308;DHT22;1666;48.898;9.182;2023-08-07T01:41:07;12.40;1.00
3308;DHT22;1666;48.898;9.182;2023-08-07T01:43:38;12.50;1.00
3308;DHT22;1666;48.898;9.182;2023-08-07T01:46:08;12.50;1.00
3308;DHT22;1666;48.898;9.182;2023-08-07T01:48:38;12.40;1.00
3308;DHT22;1666;48.898;9.182;2023-08-07T01:51:08;12.40;1.00
3308;DHT22;1666;48.898;9.182;2023-08-07T01:53:40;12.40;1.00
3308;DHT22;1666;48.898;9.182;2023-08-07T01:56:10;12.40;1.00
3308;DHT22;1666;48.898;9.182;2023-08-07T01:58:40;12.40;1.00
3308;DHT22;1666;48.898;9.182;2023-08-07T02:01:13;12.40;1.00
3308;DHT22;1666;48.898;9.182;2023-08-07T02:03:43;12.40;1.00
3308;DHT22;1666;48.898;9.182;2023-08-07T02:06:13;12.40;1.00
3308;DHT22;1666;48.898;9.182;2023-08-07T02:08:45;12.40;1.00
3308;DHT22;1666;48.898;9.182;2023-08-07T02:11:15;12.40;1.00
3308;DHT22;1666;48.898;9.182;2023-08-07T02:13:45;12.40;1.00
3308;DHT22;1666;48.898;9.182;2023-08-07T02:16:15;12.40;1.00
3308;DHT22;1666;48.898;9.182;2023-08-07T02:18:45;12.40;1.00
3308;DHT22;1666;48.898;9.182;2023-08-07T02:21:15;12.30;1.00
3308;DHT22;1666;48.898;9.182;2023-08-07T02:23:47;12.30;1.00
3308;DHT22;1666;48.898;9.182;2023-08-07T02:26:17;12.30;1.00
3308;DHT22;1666;48.898;9.182;2023-08-07T02:28:47;12.30;1.00
3308;DHT22;1666;48.898;9.182;2023-08-07T02:31:17;12.20;1.00
3308;DHT22;1666;48.898;9.182;2023-08-07T02:33:47;12.30;1.00
3308;DHT22;1666;48.898;9.182;2023-08-07T02:36:16;12.30;1.00
3308;DHT22;1666;48.898;9.182;2023-08-07T02:38:49;12.20;1.00
3308;DHT22;1666;48.898;9.182;2023-08-07T02:41:19;12.20;1.00
3308;DHT22;1666;48.898;9.182;2023-08-07T02:43:49;12.20;1.00
3308;DHT22;1666;48.898;9.182;2023-08-07T02:46:18;12.20;1.00
3308;DHT22;1666;48.898;9.182;2023-08-07T02:48:48;12.20;1.00
3308;DHT22;1666;48.898;9.182;2023-08-07T02:51:19;12.20;1.00
3308;DHT22;1666;48.898;9.182;2023-08-07T02:53:52;12.20;1.00
3308;DHT22;1666;48.898;9.182;2023-08-07T02:56:22;12.10;1.00
3308;DHT22;1666;48.898;9.182;2023-08-07T02:58:52;12.10;1.00
3308;DHT22;1666;48.898;9.182;2023-08-07T03:01:21;12.10;1.00
3308;DHT22;1666;48.898;9.182;2023-08-07T03:03:51;12.10;1.00
3308;DHT22;1666;48.898;9.182;2023-08-07T03:06:21;12.10;1.00
3308;DHT22;1666;48.898;9.182;2023-08-07T03:08:55;12.10;1.00
3308;DHT22;1666;48.898;9.182;2023-08-07T03:11:25;12.10;1.00
3308;DHT22;1666;48.898;9.182;2023-08-07T03:13:54;12.10;1.00
3308;DHT22;1666;48.898;9.182;2023-08-07T03:16:24;12.10;1.00
3308;DHT22;1666;48.898;9.182;2023-08-07T03:18:54;12.10;1.00
3308;DHT22;1666;48.898;9.182;2023-08-07T03:21:24;12.10;1.00
3308;DHT22;1666;48.898;9.182;2023-08-07T03:23:57;12.10;1.00
3308;DHT22;1666;48.898;9.182;2023-08-07T03:26:26;12.10;1.00
3308;DHT22;1666;48.898;9.182;2023-08-07T03:28:56;12.10;1.00
3308;DHT22;1666;48.898;9.182;2023-08-07T03:31:26;12.10;1.00
3308;DHT22;1666;48.898;9.182;2023-08-07T03:33:56;12.20;1.00
3308;DHT22;1666;48.898;9.182;2023-08-07T03:36:26;12.10;1.00
3308;DHT22;1666;48.898;9.182;2023-08-07T03:38:58;12.20;1.00
3308;DHT22;1666;48.898;9.182;2023-08-07T03:41:28;12.10;1.00
3308;DHT22;1666;48.898;9.182;2023-08-07T03:43:58;12.10;1.00
3308;DHT22;1666;48.898;9.182;2023-08-07T03:46:28;12.10;1.00
3308;DHT22;1666;48.898;9.182;2023-08-07T03:48:58;12.10;1.00
3308;DHT22;1666;48.898;9.182;2023-08-07T03:51:28;12.20;1.00
3308;DHT22;1666;48.898;9.182;2023-08-07T03:54:01;12.10;1.00
3308;DHT22;1666;48.898;9.182;2023-08-07T03:56:31;12.10;1.00
3308;DHT22;1666;48.898;9.182;2023-08-07T03:59:03;12.10;1.00
3308;DHT22;1666;48.898;9.182;2023-08-07T04:01:33;12.20;1.00
3308;DHT22;1666;48.898;9.182;2023-08-07T04:04:03;12.20;1.00
3308;DHT22;1666;48.898;9.182;2023-08-07T04:06:33;12.10;1.00
3308;DHT22;1666;48.898;9.182;2023-08-07T04:09:06;12.10;1.00
3308;DHT22;1666;48.898;9.182;2023-08-07T04:11:37;12.10;1.00
3308;DHT22;1666;48.898;9.182;2023-08-07T04:14:07;12.10;1.00
3308;DHT22;1666;48.898;9.182;2023-08-07T04:16:38;12.20;1.00
3308;DHT22;1666;48.898;9.182;2023-08-07T04:19:07;12.20;1.00
3308;DHT22;1666;48.898;9.182;2023-08-07T04:21:37;12.20;1.00
3308;DHT22;1666;48.898;9.182;2023-08-07T04:24:10;12.20;1.00
3308;DHT22;1666;48.898;9.182;2023-08-07T04:26:40;12.20;1.00
3308;DHT22;1666;48.898;9.182;2023-08-07T04:29:10;12.30;1.00
3308;DHT22;1666;48.898;9.182;2023-08-07T04:31:39;12.20;1.00
3308;DHT22;1666;48.898;9.182;2023-08-07T04:34:09;12.30;1.00
3308;DHT22;1666;48.898;9.182;2023-08-07T04:36:39;12.30;1.00
3308;DHT22;1666;48.898;9.182;2023-08-07T04:39:12;12.30;1.00
3308;DHT22;1666;48.898;9.182;2023-08-07T04:41:42;12.30;1.00
3308;DHT22;1666;48.898;9.182;2023-08-07T04:44:12;12.30;1.00
3308;DHT22;1666;48.898;9.182;2023-08-07T04:46:42;12.30;1.00
3308;DHT22;1666;48.898;9.182;2023-08-07T04:49:12;12.30;1.00
3308;DHT22;1666;48.898;9.182;2023-08-07T04:51:42;12.30;1.00
3308;DHT22;1666;48.898;9.182;2023-08-07T04:54:14;12.30;1.00
3308;DHT22;1666;48.898;9.182;2023-08-07T04:56:45;12.30;1.00
3308;DHT22;1666;48.898;9.182;2023-08-07T04:59:15;12.40;1.00
3308;DHT22;1666;48.898;9.182;2023-08-07T05:01:45;12.30;1.00
3308;DHT22;1666;48.898;9.182;2023-08-07T05:04:15;12.40;1.00
3308;DHT22;1666;48.898;9.182;2023-08-07T05:06:45;12.30;1.00
3308;DHT22;1666;48.898;9.182;2023-08-07T05:09:18;12.40;1.00
3308;DHT22;1666;48.898;9.182;2023-08-07T05:11:48;12.40;1.00
3308;DHT22;1666;48.898;9.182;2023-08-07T05:14:18;12.40;1.00
3308;DHT22;1666;48.898;9.182;2023-08-07T05:16:48;12.40;1.00
3308;DHT22;1666;48.898;9.182;2023-08-07T05:19:18;12.40;1.00
3308;DHT22;1666;48.898;9.182;2023-08-07T05:21:48;12.40;1.00
3308;DHT22;1666;48.898;9.182;2023-08-07T05:24:20;12.40;1.00
3308;DHT22;1666;48.898;9.182;2023-08-07T05:26:51;12.40;1.00
3308;DHT22;1666;48.898;9.182;2023-08-07T05:29:21;12.50;1.00
3308;DHT22;1666;48.898;9.182;2023-08-07T05:31:50;12.50;1.00
3308;DHT22;1666;48.898;9.182;2023-08-07T05:34:21;12.50;1.00
3308;DHT22;1666;48.898;9.182;2023-08-07T05:36:51;12.50;1.00
3308;DHT22;1666;48.898;9.182;2023-08-07T05:39:23;12.60;1.00
3308;DHT22;1666;48.898;9.182;2023-08-07T05:41:53;12.60;1.00
3308;DHT22;1666;48.898;9.182;2023-08-07T05:44:24;12.70;1.00
3308;DHT22;1666;48.898;9.182;2023-08-07T05:46:55;12.70;1.00
3308;DHT22;1666;48.898;9.182;2023-08-07T05:49:25;12.70;1.00
3308;DHT22;1666;48.898;9.182;2023-08-07T05:51:54;12.70;1.00
3308;DHT22;1666;48.898;9.182;2023-08-07T05:54:27;12.80;1.00
3308;DHT22;1666;48.898;9.182;2023-08-07T05:56:57;12.80;1.00
3308;DHT22;1666;48.898;9.182;2023-08-07T05:59:27;12.90;1.00
3308;DHT22;1666;48.898;9.182;2023-08-07T06:01:57;13.00;1.00
3308;DHT22;1666;48.898;9.182;2023-08-07T06:04:28;13.10;1.00
3308;DHT22;1666;48.898;9.182;2023-08-07T06:06:57;13.30;1.00
3308;DHT22;1666;48.898;9.182;2023-08-07T06:09:30;13.50;1.00
3308;DHT22;1666;48.898;9.182;2023-08-07T06:12:00;13.60;1.00
3308;DHT22;1666;48.898;9.182;2023-08-07T06:14:30;13.60;1.00
3308;DHT22;1666;48.898;9.182;2023-08-07T06:17:00;13.50;1.00
3308;DHT22;1666;48.898;9.182;2023-08-07T06:19:30;13.60;1.00
3308;DHT22;1666;48.898;9.182;2023-08-07T06:22:00;13.90;1.00
3308;DHT22;1666;48.898;9.182;2023-08-07T06:24:32;13.80;1.00
3308;DHT22;1666;48.898;9.182;2023-08-07T06:27:03;13.90;1.00
3308;DHT22;1666;48.898;9.182;2023-08-07T06:29:33;13.90;1.00
3308;DHT22;1666;48.898;9.182;2023-08-07T06:32:04;13.90;1.00
3308;DHT22;1666;48.898;9.182;2023-08-07T06:34:35;13.80;1.00
3308;DHT22;1666;48.898;9.182;2023-08-07T06:37:05;14.30;1.00
3308;DHT22;1666;48.898;9.182;2023-08-07T06:39:38;14.20;1.00
3308;DHT22;1666;48.898;9.182;2023-08-07T06:42:08;14.00;1.00
3308;DHT22;1666;48.898;9.182;2023-08-07T06:44:38;14.00;1.00
3308;DHT22;1666;48.898;9.182;2023-08-07T06:47:08;14.00;1.00
3308;DHT22;1666;48.898;9.182;2023-08-07T06:49:38;14.00;1.00
3308;DHT22;1666;48.898;9.182;2023-08-07T06:52:08;14.00;1.00
3308;DHT22;1666;48.898;9.182;2023-08-07T06:54:40;13.80;1.00
3308;DHT22;1666;48.898;9.182;2023-08-07T06:57:10;14.10;1.00
3308;DHT22;1666;48.898;9.182;2023-08-07T06:59:40;13.90;1.00
3308;DHT22;1666;48.898;9.182;2023-08-07T07:02:10;14.10;1.00
3308;DHT22;1666;48.898;9.182;2023-08-07T07:04:40;14.30;1.00
3308;DHT22;1666;48.898;9.182;2023-08-07T07:07:10;14.40;1.00
3308;DHT22;1666;48.898;9.182;2023-08-07T07:09:43;14.60;1.00
3308;DHT22;1666;48.898;9.182;2023-08-07T07:12:13;14.40;1.00
3308;DHT22;1666;48.898;9.182;2023-08-07T07:14:43;14.40;1.00
3308;DHT22;1666;48.898;9.182;2023-08-07T07:17:13;14.70;1.00
3308;DHT22;1666;48.898;9.182;2023-08-07T07:19:43;14.70;1.00
3308;DHT22;1666;48.898;9.182;2023-08-07T07:22:12;14.50;1.00
3308;DHT22;1666;48.898;9.182;2023-08-07T07:24:45;14.30;1.00
3308;DHT22;1666;48.898;9.182;2023-08-07T07:27:15;14.20;1.00
3308;DHT22;1666;48.898;9.182;2023-08-07T07:29:49;14.00;1.00
3308;DHT22;1666;48.898;9.182;2023-08-07T07:32:19;14.00;1.00
3308;DHT22;1666;48.898;9.182;2023-08-07T07:34:49;14.20;1.00
3308;DHT22;1666;48.898;9.182;2023-08-07T07:37:19;14.20;1.00
3308;DHT22;1666;48.898;9.182;2023-08-07T07:39:51;14.00;1.00
3308;DHT22;1666;48.898;9.182;2023-08-07T07:42:21;14.30;1.00
3308;DHT22;1666;48.898;9.182;2023-08-07T07:44:51;14.50;1.00
3308;DHT22;1666;48.898;9.182;2023-08-07T07:47:21;14.20;1.00
3308;DHT22;1666;48.898;9.182;2023-08-07T07:50:04;14.40;1.00
3308;DHT22;1666;48.898;9.182;2023-08-07T07:52:35;14.50;1.00
3308;DHT22;1666;48.898;9.182;2023-08-07T07:55:09;14.60;1.00
3308;DHT22;1666;48.898;9.182;2023-08-07T07:57:41;14.70;1.00
3308;DHT22;1666;48.898;9.182;2023-08-07T08:00:12;14.70;1.00
3308;DHT22;1666;48.898;9.182;2023-08-07T08:02:43;14.60;1.00
3308;DHT22;1666;48.898;9.182;2023-08-07T08:05:13;14.80;1.00
3308;DHT22;1666;48.898;9.182;2023-08-07T08:07:44;14.60;1.00
3308;DHT22;1666;48.898;9.182;2023-08-07T08:10:17;14.50;1.00
3308;DHT22;1666;48.898;9.182;2023-08-07T08:12:47;14.90;1.00
3308;DHT22;1666;48.898;9.182;2023-08-07T08:15:17;14.70;1.00
3308;DHT22;1666;48.898;9.182;2023-08-07T08:17:48;14.50;1.00
3308;DHT22;1666;48.898;9.182;2023-08-07T08:20:18;14.80;1.00
3308;DHT22;1666;48.898;9.182;2023-08-07T08:22:48;14.70;1.00
3308;DHT22;1666;48.898;9.182;2023-08-07T08:25:20;14.90;1.00
3308;DHT22;1666;48.898;9.182;2023-08-07T08:27:52;14.90;1.00
3308;DHT22;1666;48.898;9.182;2023-08-07T08:30:22;15.00;1.00
3308;DHT22;1666;48.898;9.182;2023-08-07T08:32:52;14.90;1.00
3308;DHT22;1666;48.898;9.182;2023-08-07T08:35:22;15.20;1.00
3308;DHT22;1666;48.898;9.182;2023-08-07T08:37:53;15.30;1.00
3308;DHT22;1666;48.898;9.182;2023-08-07T08:40:26;15.40;1.00
3308;DHT22;1666;48.898;9.182;2023-08-07T08:42:56;15.20;1.00
3308;DHT22;1666;48.898;9.182;2023-08-07T08:45:27;15.10;1.00
3308;DHT22;1666;48.898;9.182;2023-08-07T08:48:01;15.50;1.00
3308;DHT22;1666;48.898;9.182;2023-08-07T08:50:33;15.80;1.00
3308;DHT22;1666;48.898;9.182;2023-08-07T08:53:04;15.90;1.00
3308;DHT22;1666;48.898;9.182;2023-08-07T08:55:40;16.00;1.00
3308;DHT22;1666;48.898;9.182;2023-08-07T08:58:15;16.00;1.00
3308;DHT22;1666;48.898;9.182;2023-08-07T09:00:46;15.70;1.00
3308;DHT22;1666;48.898;9.182;2023-08-07T09:03:17;15.70;1.00
3308;DHT22;1666;48.898;9.182;2023-08-07T09:05:49;15.60;1.00
3308;DHT22;1666;48.898;9.182;2023-08-07T09:08:20;15.60;1.00
3308;DHT22;1666;48.898;9.182;2023-08-07T09:10:53;15.90;1.00
3308;DHT22;1666;48.898;9.182;2023-08-07T09:13:24;15.60;1.00
3308;DHT22;1666;48.898;9.182;2023-08-07T09:15:55;15.50;1.00
3308;DHT22;1666;48.898;9.182;2023-08-07T09:18:26;16.00;1.00
3308;DHT22;1666;48.898;9.182;2023-08-07T09:20:56;16.00;1.00
3308;DHT22;1666;48.898;9.182;2023-08-07T09:23:27;16.10;1.00
3308;DHT22;1666;48.898;9.182;2023-08-07T09:26:04;15.80;1.00
3308;DHT22;1666;48.898;9.182;2023-08-07T09:28:35;16.50;1.00
3308;DHT22;1666;48.898;9.182;2023-08-07T09:31:06;16.00;1.00
3308;DHT22;1666;48.898;9.182;2023-08-07T09:33:39;15.70;1.00
3308;DHT22;1666;48.898;9.182;2023-08-07T09:36:09;15.70;1.00
3308;DHT22;1666;48.898;9.182;2023-08-07T09:38:38;15.90;1.00
3308;DHT22;1666;48.898;9.182;2023-08-07T09:41:11;16.50;1.00
3308;DHT22;1666;48.898;9.182;2023-08-07T09:43:41;16.20;1.00
3308;DHT22;1666;48.898;9.182;2023-08-07T09:46:11;16.30;1.00
3308;DHT22;1666;48.898;9.182;2023-08-07T09:48:43;17.20;1.00
3308;DHT22;1666;48.898;9.182;2023-08-07T09:51:13;17.10;1.00
3308;DHT22;1666;48.898;9.182;2023-08-07T09:53:43;16.50;1.00
3308;DHT22;1666;48.898;9.182;2023-08-07T09:56:16;16.80;1.00
3308;DHT22;1666;48.898;9.182;2023-08-07T09:58:49;16.60;1.00
3308;DHT22;1666;48.898;9.182;2023-08-07T10:01:19;17.00;1.00
3308;DHT22;1666;48.898;9.182;2023-08-07T10:03:49;17.00;1.00
3308;DHT22;1666;48.898;9.182;2023-08-07T10:06:19;17.20;1.00
3308;DHT22;1666;48.898;9.182;2023-08-07T10:08:50;16.70;1.00
3308;DHT22;1666;48.898;9.182;2023-08-07T10:11:23;17.50;1.00
3308;DHT22;1666;48.898;9.182;2023-08-07T10:13:53;17.90;1.00
3308;DHT22;1666;48.898;9.182;2023-08-07T10:16:26;17.70;1.00
3308;DHT22;1666;48.898;9.182;2023-08-07T10:18:56;17.40;1.00
3308;DHT22;1666;48.898;9.182;2023-08-07T10:21:26;17.40;1.00
3308;DHT22;1666;48.898;9.182;2023-08-07T10:23:57;17.20;1.00
3308;DHT22;1666;48.898;9.182;2023-08-07T10:26:31;16.70;1.00
3308;DHT22;1666;48.898;9.182;2023-08-07T10:29:03;17.10;1.00
3308;DHT22;1666;48.898;9.182;2023-08-07T10:31:35;16.80;1.00
3308;DHT22;1666;48.898;9.182;2023-08-07T10:34:05;16.50;1.00
3308;DHT22;1666;48.898;9.182;2023-08-07T10:36:37;16.20;1.00
3308;DHT22;1666;48.898;9.182;2023-08-07T10:39:08;16.00;1.00
3308;DHT22;1666;48.898;9.182;2023-08-07T10:41:42;16.50;1.00
3308;DHT22;1666;48.898;9.182;2023-08-07T10:44:17;16.70;1.00
3308;DHT22;1666;48.898;9.182;2023-08-07T10:46:51;16.70;1.00
3308;DHT22;1666;48.898;9.182;2023-08-07T10:49:32;16.50;1.00
3308;DHT22;1666;48.898;9.182;2023-08-07T10:52:05;16.40;1.00
3308;DHT22;1666;48.898;9.182;2023-08-07T10:54:37;16.50;1.00
3308;DHT22;1666;48.898;9.182;2023-08-07T10:57:14;16.70;1.00
3308;DHT22;1666;48.898;9.182;2023-08-07T10:59:48;16.90;1.00
3308;DHT22;1666;48.898;9.182;2023-08-07T11:02:23;16.70;1.00
3308;DHT22;1666;48.898;9.182;2023-08-07T11:04:54;16.60;1.00
3308;DHT22;1666;48.898;9.182;2023-08-07T11:07:26;16.40;1.00
3308;DHT22;1666;48.898;9.182;2023-08-07T11:09:58;16.20;1.00
3308;DHT22;1666;48.898;9.182;2023-08-07T11:12:32;16.10;1.00
3308;DHT22;1666;48.898;9.182;2023-08-07T11:15:04;16.10;1.00
3308;DHT22;1666;48.898;9.182;2023-08-07T11:17:34;16.00;1.00
3308;DHT22;1666;48.898;9.182;2023-08-07T11:20:05;16.30;1.00
3308;DHT22;1666;48.898;9.182;2023-08-07T11:22:35;16.30;1.00
3308;DHT22;1666;48.898;9.182;2023-08-07T11:25:07;16.30;1.00
3308;DHT22;1666;48.898;9.182;2023-08-07T11:27:46;16.40;1.00
3308;DHT22;1666;48.898;9.182;2023-08-07T11:30:16;16.50;1.00
3308;DHT22;1666;48.898;9.182;2023-08-07T11:32:46;16.20;1.00
3308;DHT22;1666;48.898;9.182;2023-08-07T11:35:16;16.60;1.00
3308;DHT22;1666;48.898;9.182;2023-08-07T11:37:46;16.70;1.00
3308;DHT22;1666;48.898;9.182;2023-08-07T11:40:17;16.60;1.00
3308;DHT22;1666;48.898;9.182;2023-08-07T11:42:50;16.70;1.00
3308;DHT22;1666;48.898;9.182;2023-08-07T11:45:20;16.50;1.00
3308;DHT22;1666;48.898;9.182;2023-08-07T11:47:50;16.50;1.00
3308;DHT22;1666;48.898;9.182;2023-08-07T11:50:22;16.40;1.00
3308;DHT22;1666;48.898;9.182;2023-08-07T11:52:52;16.60;1.00
3308;DHT22;1666;48.898;9.182;2023-08-07T11:55:28;16.40;1.00
3308;DHT22;1666;48.898;9.182;2023-08-07T11:58:03;16.20;1.00
3308;DHT22;1666;48.898;9.182;2023-08-07T12:00:33;16.40;1.00
3308;DHT22;1666;48.898;9.182;2023-08-07T12:03:03;16.50;1.00
3308;DHT22;1666;48.898;9.182;2023-08-07T12:05:52;16.60;1.00
3308;DHT22;1666;48.898;9.182;2023-08-07T12:08:23;16.70;1.00
3308;DHT22;1666;48.898;9.182;2023-08-07T12:10:54;16.90;1.00
3308;DHT22;1666;48.898;9.182;2023-08-07T12:13:26;16.90;1.00
3308;DHT22;1666;48.898;9.182;2023-08-07T12:15:57;17.30;1.00
3308;DHT22;1666;48.898;9.182;2023-08-07T12:18:28;17.40;1.00
3308;DHT22;1666;48.898;9.182;2023-08-07T12:20:59;17.70;1.00
3308;DHT22;1666;48.898;9.182;2023-08-07T12:23:33;17.60;1.00
3308;DHT22;1666;48.898;9.182;2023-08-07T12:26:04;17.10;1.00
3308;DHT22;1666;48.898;9.182;2023-08-07T12:28:37;17.30;1.00
3308;DHT22;1666;48.898;9.182;2023-08-07T12:31:07;17.30;1.00
3308;DHT22;1666;48.898;9.182;2023-08-07T12:33:37;16.90;1.00
3308;DHT22;1666;48.898;9.182;2023-08-07T12:36:07;17.40;1.00
3308;DHT22;1666;48.898;9.182;2023-08-07T12:38:40;17.80;1.00
3308;DHT22;1666;48.898;9.182;2023-08-07T12:41:11;17.40;1.00
3308;DHT22;1666;48.898;9.182;2023-08-07T12:43:46;16.90;1.00
3308;DHT22;1666;48.898;9.182;2023-08-07T12:46:16;17.10;1.00
3308;DHT22;1666;48.898;9.182;2023-08-07T12:48:49;17.90;1.00
3308;DHT22;1666;48.898;9.182;2023-08-07T12:51:19;18.00;1.00
3308;DHT22;1666;48.898;9.182;2023-08-07T12:53:49;18.10;1.00
3308;DHT22;1666;48.898;9.182;2023-08-07T12:56:19;17.80;1.00
3308;DHT22;1666;48.898;9.182;2023-08-07T12:58:51;17.70;1.00
3308;DHT22;1666;48.898;9.182;2023-08-07T13:01:21;17.90;1.00
3308;DHT22;1666;48.898;9.182;2023-08-07T13:03:52;17.60;1.00
3308;DHT22;1666;48.898;9.182;2023-08-07T13:06:22;17.50;1.00
3308;DHT22;1666;48.898;9.182;2023-08-07T13:08:52;17.20;1.00
3308;DHT22;1666;48.898;9.182;2023-08-07T13:11:23;17.50;1.00
3308;DHT22;1666;48.898;9.182;2023-08-07T13:13:55;17.50;1.00
3308;DHT22;1666;48.898;9.182;2023-08-07T13:16:25;17.60;1.00
3308;DHT22;1666;48.898;9.182;2023-08-07T13:18:55;17.80;1.00
3308;DHT22;1666;48.898;9.182;2023-08-07T13:21:25;17.00;1.00
3308;DHT22;1666;48.898;9.182;2023-08-07T13:23:55;17.00;1.00
3308;DHT22;1666;48.898;9.182;2023-08-07T13:26:25;17.40;1.00
3308;DHT22;1666;48.898;9.182;2023-08-07T13:28:58;17.80;1.00
3308;DHT22;1666;48.898;9.182;2023-08-07T13:31:27;18.00;1.00
3308;DHT22;1666;48.898;9.182;2023-08-07T13:33:57;18.40;1.00
3308;DHT22;1666;48.898;9.182;2023-08-07T13:36:27;18.80;1.00
3308;DHT22;1666;48.898;9.182;2023-08-07T13:38:57;18.60;1.00
3308;DHT22;1666;48.898;9.182;2023-08-07T13:41:27;18.20;1.00
3308;DHT22;1666;48.898;9.182;2023-08-07T13:44:00;18.20;1.00
3308;DHT22;1666;48.898;9.182;2023-08-07T13:46:30;18.90;1.00
3308;DHT22;1666;48.898;9.182;2023-08-07T13:49:00;18.20;1.00
3308;DHT22;1666;48.898;9.182;2023-08-07T13:51:30;18.40;1.00
3308;DHT22;1666;48.898;9.182;2023-08-07T13:54:00;18.60;1.00
3308;DHT22;1666;48.898;9.182;2023-08-07T13:56:30;18.70;1.00
3308;DHT22;1666;48.898;9.182;2023-08-07T13:59:03;18.50;1.00
3308;DHT22;1666;48.898;9.182;2023-08-07T14:01:32;18.50;1.00
3308;DHT22;1666;48.898;9.182;2023-08-07T14:04:03;18.70;1.00
3308;DHT22;1666;48.898;9.182;2023-08-07T14:06:33;18.40;1.00
3308;DHT22;1666;48.898;9.182;2023-08-07T14:09:03;18.30;1.00
3308;DHT22;1666;48.898;9.182;2023-08-07T14:11:36;18.90;1.00
3308;DHT22;1666;48.898;9.182;2023-08-07T14:14:09;18.90;1.00
3308;DHT22;1666;48.898;9.182;2023-08-07T14:16:39;18.60;1.00
3308;DHT22;1666;48.898;9.182;2023-08-07T14:19:10;18.70;1.00
3308;DHT22;1666;48.898;9.182;2023-08-07T14:21:40;19.00;1.00
3308;DHT22;1666;48.898;9.182;2023-08-07T14:24:10;18.60;1.00
3308;DHT22;1666;48.898;9.182;2023-08-07T14:26:40;18.30;1.00
3308;DHT22;1666;48.898;9.182;2023-08-07T14:29:12;18.10;1.00
3308;DHT22;1666;48.898;9.182;2023-08-07T14:31:42;18.30;1.00
3308;DHT22;1666;48.898;9.182;2023-08-07T14:34:12;18.50;1.00
3308;DHT22;1666;48.898;9.182;2023-08-07T14:36:42;18.30;1.00
3308;DHT22;1666;48.898;9.182;2023-08-07T14:39:12;18.50;1.00
3308;DHT22;1666;48.898;9.182;2023-08-07T14:41:42;18.80;1.00
3308;DHT22;1666;48.898;9.182;2023-08-07T14:44:15;19.10;1.00
3308;DHT22;1666;48.898;9.182;2023-08-07T14:46:45;19.60;1.00
3308;DHT22;1666;48.898;9.182;2023-08-07T14:49:15;19.70;1.00
3308;DHT22;1666;48.898;9.182;2023-08-07T14:51:45;19.20;1.00
3308;DHT22;1666;48.898;9.182;2023-08-07T14:54:15;18.90;1.00
3308;DHT22;1666;48.898;9.182;2023-08-07T14:56:45;18.70;1.00
3308;DHT22;1666;48.898;9.182;2023-08-07T14:59:17;18.20;1.00
3308;DHT22;1666;48.898;9.182;2023-08-07T15:01:47;18.20;1.00
3308;DHT22;1666;48.898;9.182;2023-08-07T15:04:17;18.20;1.00
3308;DHT22;1666;48.898;9.182;2023-08-07T15:06:47;18.00;1.00
3308;DHT22;1666;48.898;9.182;2023-08-07T15:09:17;17.60;1.00
3308;DHT22;1666;48.898;9.182;2023-08-07T15:11:47;17.20;1.00
3308;DHT22;1666;48.898;9.182;2023-08-07T15:14:20;17.10;1.00
3308;DHT22;1666;48.898;9.182;2023-08-07T15:16:50;17.10;1.00
3308;DHT22;1666;48.898;9.182;2023-08-07T15:19:20;17.20;1.00
3308;DHT22;1666;48.898;9.182;2023-08-07T15:21:50;17.10;1.00
3308;DHT22;1666;48.898;9.182;2023-08-07T15:24:20;17.50;1.00
3308;DHT22;1666;48.898;9.182;2023-08-07T15:26:50;17.80;1.00
3308;DHT22;1666;48.898;9.182;2023-08-07T15:29:22;18.30;1.00
3308;DHT22;1666;48.898;9.182;2023-08-07T15:31:52;18.30;1.00
3308;DHT22;1666;48.898;9.182;2023-08-07T15:34:23;18.30;1.00
3308;DHT22;1666;48.898;9.182;2023-08-07T15:36:53;18.20;1.00
3308;DHT22;1666;48.898;9.182;2023-08-07T15:39:25;18.20;1.00
3308;DHT22;1666;48.898;9.182;2023-08-07T15:41:55;18.20;1.00
3308;DHT22;1666;48.898;9.182;2023-08-07T15:44:28;18.20;1.00
3308;DHT22;1666;48.898;9.182;2023-08-07T15:46:58;18.20;1.00
3308;DHT22;1666;48.898;9.182;2023-08-07T15:49:28;18.10;1.00
3308;DHT22;1666;48.898;9.182;2023-08-07T15:51:58;18.10;1.00
3308;DHT22;1666;48.898;9.182;2023-08-07T15:54:28;18.20;1.00
3308;DHT22;1666;48.898;9.182;2023-08-07T15:56:58;18.20;1.00
3308;DHT22;1666;48.898;9.182;2023-08-07T15:59:30;18.40;1.00
3308;DHT22;1666;48.898;9.182;2023-08-07T16:02:00;18.50;1.00
3308;DHT22;1666;48.898;9.182;2023-08-07T16:04:30;18.40;1.00
3308;DHT22;1666;48.898;9.182;2023-08-07T16:07:00;18.80;1.00
3308;DHT22;1666;48.898;9.182;2023-08-07T16:09:30;18.90;1.00
3308;DHT22;1666;48.898;9.182;2023-08-07T16:12:00;18.60;1.00
3308;DHT22;1666;48.898;9.182;2023-08-07T16:14:33;18.50;1.00
3308;DHT22;1666;48.898;9.182;2023-08-07T16:17:05;18.80;1.00
3308;DHT22;1666;48.898;9.182;2023-08-07T16:19:35;18.80;1.00
3308;DHT22;1666;48.898;9.182;2023-08-07T16:22:05;19.00;1.00
3308;DHT22;1666;48.898;9.182;2023-08-07T16:24:35;18.90;1.00
3308;DHT22;1666;48.898;9.182;2023-08-07T16:27:06;18.80;1.00
3308;DHT22;1666;48.898;9.182;2023-08-07T16:29:38;19.00;1.00
3308;DHT22;1666;48.898;9.182;2023-08-07T16:32:08;19.10;1.00
3308;DHT22;1666;48.898;9.182;2023-08-07T16:34:38;18.70;1.00
3308;DHT22;1666;48.898;9.182;2023-08-07T16:37:08;18.90;1.00
3308;DHT22;1666;48.898;9.182;2023-08-07T16:39:38;19.20;1.00
3308;DHT22;1666;48.898;9.182;2023-08-07T16:42:09;19.00;1.00